Portada
METAR-TAF:

METAR-TAF

Aeroports :

Barnaül, Rússia

latitud: 53-26N, longitud: 083-31E, altitud: 252 m

Observació

L'informe es va fer fa 17 minuts, a les 10:00 UTC
Vent 8 kt del Nord-Oest
Temperatura -3°C
Humitat 74%
Pressió 1024 hPa
Visibilitat 10 km o més
Núvols disperses a una alçada de 3000 ft

METAR: UNBB 231000Z 31004MPS 9999 SCT030 M03/M07 Q1024 R24/910360 NOSIG RMK QFE746

Hora: 17:17 (10:17 UTC)

Pronòstic

L'informe es va fer fa 2 hores i 17 minuts, a les 08:00 UTC
Pronòstic vàlid del 23 a les 09 UTC al 24 a les 09 UTC
Vent 6 kt del Nord-Oest
Visibilitat 10 km o més
Cel ennuvolat a una alçada de 2000 ft
Temporalment
l' 23 a les 12 UTC al 24 a les 06 UTC
Visibilitat: 0400 m
Cel ennuvolat a una alçada de 300 ft
neu, boira gebradora
Evolucionant progressivament
l' 24 a les 03 UTC al 24 a les 04 UTC
Vent 6 kt del Oest

TAF: UNBB 230800Z 2309/2409 32003MPS 9999 BKN020 TEMPO 2312/2406 0400 -SN FZFG BKN003 BECMG 2403/2404 28003MPS

Observacions i pronòstics meteorològics de més de 4000 aeroports (METAR i TAF).

Les estacions disponibles són els punts grocs i vermells al mapa.

Posi el ratolí al punt desitjat per veure el nom de l'estació.

Feu clic per veure les observacions i els pronòstics meteorològics.

Per canviar el mapa: feu clic els botons verds amb una creu de color negre per apropar; al botó verd amb un guió per allunyar la imatge; o en les fletxes verdes per a mapes adjacents.


METAR-TAF: